Time;durP1;ratioP1;P1;durP2;ratioP2;P2;SDS_P1;SDS_P2;PMS_P1;PMS_P2;Temp;Humidity;BMP_temperature;BMP_pressure;BME280_temperature;BME280_humidity;BME280_pressure;Samples;Min_cycle;Max_cycle;Signal;HPM_P1;HPM_P2
2022/03/01 00:01:38;;;;;;;11.70;4.30;;;0.20;99.90;;;;;;10346871;28;20143;-62
2022/03/01 00:06:40;;;;;;;8.32;3.47;;;0.30;99.90;;;;;;10345709;28;20053;-62
2022/03/01 00:11:41;;;;;;;9.73;3.25;;;0.20;99.90;;;;;;10346700;28;20108;-62
2022/03/01 00:16:43;;;;;;;7.35;3.28;;;0.20;99.90;;;;;;10353079;28;20073;-61
2022/03/01 00:21:45;;;;;;;7.85;3.25;;;0.20;99.90;;;;;;10346543;28;20164;-61
2022/03/01 00:26:46;;;;;;;7.82;3.47;;;0.10;99.90;;;;;;10345423;28;20054;-61
2022/03/01 00:31:48;;;;;;;9.85;3.72;;;0.10;99.90;;;;;;10350835;28;20119;-61
2022/03/01 00:36:50;;;;;;;8.20;2.92;;;0.10;99.90;;;;;;10344920;28;20400;-62
2022/03/01 00:41:51;;;;;;;5.90;2.80;;;0.00;99.90;;;;;;10346022;28;20049;-61
2022/03/01 00:46:53;;;;;;;9.35;2.75;;;0.00;99.90;;;;;;10344701;28;20050;-61
2022/03/01 00:51:55;;;;;;;10.00;2.70;;;0.00;99.90;;;;;;10338251;28;20046;-61
2022/03/01 00:56:56;;;;;;;12.10;3.25;;;-0.10;99.90;;;;;;10335572;28;20049;-61
2022/03/01 01:01:58;;;;;;;12.50;3.53;;;-0.10;99.90;;;;;;10348966;28;20114;-61
2022/03/01 01:07:00;;;;;;;8.38;3.05;;;-0.20;99.90;;;;;;10348693;28;20129;-62
2022/03/01 01:12:03;;;;;;;10.20;2.78;;;-0.20;99.90;;;;;;10339098;28;20081;-63
2022/03/01 01:17:05;;;;;;;9.15;2.95;;;-0.20;99.90;;;;;;10347722;28;20054;-61
2022/03/01 01:27:27;;;;;;;9.63;3.38;;;-0.40;99.90;;;;;;10349420;28;20132;-61
2022/03/01 01:32:29;;;;;;;8.13;2.83;;;-0.40;99.90;;;;;;10348514;28;20053;-61
2022/03/01 01:37:30;;;;;;;12.50;3.75;;;-0.50;99.90;;;;;;10336732;28;20046;-61
2022/03/01 01:42:32;;;;;;;10.80;3.42;;;-0.50;99.90;;;;;;10343670;28;20081;-62
2022/03/01 01:47:34;;;;;;;10.32;3.05;;;-0.50;99.90;;;;;;10339025;28;20145;-62
2022/03/01 01:52:36;;;;;;;14.88;4.45;;;-0.60;99.90;;;;;;10343858;28;20151;-61
2022/03/01 01:57:40;;;;;;;9.98;3.15;;;-0.60;99.90;;;;;;10344136;28;20085;-61
2022/03/01 02:02:42;;;;;;;11.07;3.25;;;-0.70;99.90;;;;;;10338637;28;20131;-61
2022/03/01 02:07:49;;;;;;;10.95;3.58;;;-0.70;99.90;;;;;;10344351;28;20073;-61
2022/03/01 02:12:51;;;;;;;13.67;3.03;;;-0.70;99.90;;;;;;10349393;28;20489;-61
2022/03/01 02:17:53;;;;;;;11.13;3.15;;;-0.70;99.90;;;;;;10347428;28;20073;-61
2022/03/01 02:22:56;;;;;;;16.38;4.07;;;-0.60;98.40;;;;;;10340336;28;20069;-61
2022/03/01 02:27:57;;;;;;;20.30;5.15;;;-0.60;95.10;;;;;;10344536;28;20050;-61
2022/03/01 02:33:00;;;;;;;19.85;6.78;;;-0.60;97.40;;;;;;10342875;28;20720;-62
2022/03/01 02:38:02;;;;;;;12.93;4.70;;;-0.70;99.90;;;;;;10339153;28;20116;-62
2022/03/01 02:43:05;;;;;;;10.55;3.53;;;-0.70;99.90;;;;;;10338984;28;20053;-61
2022/03/01 02:48:09;;;;;;;8.70;2.83;;;-0.70;99.90;;;;;;10341170;28;20050;-61
2022/03/01 02:53:11;;;;;;;10.23;3.20;;;-0.70;99.40;;;;;;10340736;28;20056;-61
2022/03/01 02:58:13;;;;;;;12.35;2.55;;;-0.70;99.90;;;;;;10345279;28;20057;-61
2022/03/01 03:03:15;;;;;;;7.55;2.90;;;-0.80;99.90;;;;;;10341377;28;20519;-61
2022/03/01 03:08:17;;;;;;;10.32;3.40;;;-0.80;99.90;;;;;;10338244;28;20041;-61
2022/03/01 03:13:20;;;;;;;11.63;3.70;;;-0.90;99.90;;;;;;10346058;28;20124;-61
2022/03/01 03:18:21;;;;;;;10.20;2.95;;;-0.90;99.90;;;;;;10337728;28;20475;-61
2022/03/01 03:23:24;;;;;;;11.05;3.25;;;-1.00;99.90;;;;;;10335099;28;20151;-61
2022/03/01 03:28:27;;;;;;;12.55;3.50;;;-1.00;99.90;;;;;;10332377;28;20057;-61
2022/03/01 03:33:29;;;;;;;16.38;3.58;;;-1.10;99.90;;;;;;10339531;28;20078;-61
2022/03/01 03:38:30;;;;;;;9.70;3.42;;;-1.10;99.90;;;;;;10345093;28;20054;-61
2022/03/01 03:43:32;;;;;;;12.73;3.65;;;-1.20;99.90;;;;;;10350312;28;20558;-61
2022/03/01 03:48:34;;;;;;;9.50;2.50;;;-1.30;99.90;;;;;;10345532;28;20609;-61
2022/03/01 03:53:35;;;;;;;12.20;3.13;;;-1.30;99.90;;;;;;10346773;28;20058;-60
2022/03/01 03:58:37;;;;;;;11.48;3.53;;;-1.40;99.90;;;;;;10347131;28;20069;-61
2022/03/01 04:03:39;;;;;;;7.57;2.50;;;-1.40;99.90;;;;;;10344401;28;20100;-60
2022/03/01 04:08:40;;;;;;;12.85;3.45;;;-1.50;99.90;;;;;;10339042;28;20108;-61
2022/03/01 04:13:42;;;;;;;9.10;3.53;;;-1.50;99.90;;;;;;10340325;28;20467;-62
2022/03/01 04:18:44;;;;;;;10.20;3.25;;;-1.40;99.90;;;;;;10341045;28;20053;-60
2022/03/01 04:23:45;;;;;;;9.18;3.03;;;-1.50;99.90;;;;;;10334055;28;20125;-60
2022/03/01 04:28:48;;;;;;;8.23;3.42;;;-1.50;99.90;;;;;;10340232;28;20103;-60
2022/03/01 04:33:50;;;;;;;10.38;3.15;;;-1.50;99.90;;;;;;10338806;28;20135;-60
2022/03/01 04:38:51;;;;;;;16.00;4.00;;;-1.50;99.90;;;;;;10352485;28;20116;-60
2022/03/01 04:43:53;;;;;;;9.00;3.38;;;-1.60;99.90;;;;;;10336882;28;20081;-61
2022/03/01 04:48:55;;;;;;;13.57;3.38;;;-1.60;99.90;;;;;;10355412;28;20064;-60
2022/03/01 04:53:56;;;;;;;10.50;3.08;;;-1.60;99.90;;;;;;10346316;28;20521;-62
2022/03/01 04:58:58;;;;;;;10.40;3.20;;;-1.60;99.90;;;;;;10345041;28;20045;-61
2022/03/01 05:03:59;;;;;;;12.10;3.15;;;-1.70;99.90;;;;;;10346080;28;20154;-61
2022/03/01 05:09:01;;;;;;;14.13;4.30;;;-1.70;99.90;;;;;;10342221;28;20622;-62
2022/03/01 05:14:03;;;;;;;14.60;3.33;;;-1.80;99.90;;;;;;10338950;28;20133;-61
2022/03/01 05:19:09;;;;;;;12.30;3.67;;;-1.80;99.90;;;;;;10342382;28;20057;-62
2022/03/01 05:24:10;;;;;;;12.05;3.58;;;-1.80;99.90;;;;;;10348822;28;20050;-61
2022/03/01 05:29:13;;;;;;;12.52;4.05;;;-1.80;99.90;;;;;;10347624;28;20042;-61
2022/03/01 05:34:14;;;;;;;14.07;4.13;;;-1.80;99.90;;;;;;10344778;28;20069;-61
2022/03/01 05:39:17;;;;;;;12.15;3.40;;;-1.90;99.90;;;;;;10341047;28;20130;-61
2022/03/01 05:44:20;;;;;;;15.65;3.63;;;-1.90;99.90;;;;;;10343678;28;20081;-62
2022/03/01 05:49:23;;;;;;;16.02;3.92;;;-1.90;99.90;;;;;;10347544;28;20066;-62
2022/03/01 05:54:24;;;;;;;10.23;3.17;;;-1.90;99.90;;;;;;10340556;28;20136;-61
2022/03/01 05:59:26;;;;;;;11.45;4.03;;;-2.00;99.90;;;;;;10339632;28;20054;-61
2022/03/01 06:04:28;;;;;;;12.27;3.58;;;-2.00;99.90;;;;;;10349367;28;20049;-62
2022/03/01 06:09:29;;;;;;;11.02;3.90;;;-2.00;99.90;;;;;;10341060;28;20050;-63
2022/03/01 06:14:31;;;;;;;11.00;3.55;;;-1.90;99.90;;;;;;10339862;28;20493;-64
2022/03/01 06:19:33;;;;;;;9.45;3.90;;;-1.90;99.90;;;;;;10343340;28;20104;-64
2022/03/01 06:24:39;;;;;;;16.30;5.20;;;-1.90;99.90;;;;;;10338887;28;20104;-65
2022/03/01 06:29:43;;;;;;;13.05;4.93;;;-1.90;99.90;;;;;;10343082;28;20054;-66
2022/03/01 06:34:44;;;;;;;14.90;4.32;;;-1.90;99.90;;;;;;10342780;28;20049;-65
2022/03/01 06:40:07;;;;;;;14.90;5.25;;;-1.90;99.90;;;;;;10339953;28;20054;-65
2022/03/01 06:45:10;;;;;;;14.18;5.43;;;-1.90;99.90;;;;;;10341266;28;20100;-65
2022/03/01 06:50:12;;;;;;;18.27;4.35;;;-1.80;99.90;;;;;;10338274;28;20496;-65
2022/03/01 06:55:14;;;;;;;18.20;6.38;;;-1.80;99.90;;;;;;10338971;28;20116;-65
2022/03/01 07:00:16;;;;;;;12.32;4.55;;;-1.70;99.90;;;;;;10345344;28;20054;-66
2022/03/01 07:05:19;;;;;;;11.93;4.45;;;-1.60;99.90;;;;;;10337122;28;20116;-65
2022/03/01 07:10:21;;;;;;;16.20;5.07;;;-1.50;99.90;;;;;;10341786;28;20053;-66
2022/03/01 07:15:23;;;;;;;16.95;4.85;;;-1.30;99.90;;;;;;10338307;28;20065;-65
2022/03/01 07:20:24;;;;;;;14.75;5.00;;;-1.20;99.90;;;;;;10343969;28;20049;-65
2022/03/01 07:25:26;;;;;;;11.85;4.60;;;-1.00;99.90;;;;;;10345719;28;20041;-66
2022/03/01 07:30:28;;;;;;;20.50;5.13;;;-0.90;98.40;;;;;;10343117;28;20092;-66
2022/03/01 07:35:30;;;;;;;14.45;3.92;;;-0.70;97.50;;;;;;10346419;28;20046;-66
2022/03/01 07:40:32;;;;;;;14.07;5.15;;;-0.60;98.20;;;;;;10337267;28;20203;-66
2022/03/01 07:45:35;;;;;;;14.45;3.63;;;-0.40;96.20;;;;;;10341685;28;20057;-65
2022/03/01 07:50:36;;;;;;;16.40;5.30;;;-0.30;94.30;;;;;;10328799;28;20046;-65
2022/03/01 07:55:38;;;;;;;11.88;3.78;;;-0.10;93.90;;;;;;10349451;28;20432;-65
2022/03/01 08:00:40;;;;;;;10.32;4.55;;;0.10;92.50;;;;;;10340638;28;20089;-65
2022/03/01 08:05:42;;;;;;;12.98;3.97;;;0.30;89.50;;;;;;10350032;28;20113;-65
2022/03/01 08:10:44;;;;;;;10.43;3.95;;;0.40;87.00;;;;;;10347831;28;20075;-65
2022/03/01 08:16:06;;;;;;;7.38;3.40;;;0.50;85.70;;;;;;10340468;28;20050;-65
2022/03/01 08:21:09;;;;;;;11.57;4.10;;;0.70;85.10;;;;;;10359266;28;20385;-65
2022/03/01 08:26:10;;;;;;;11.07;4.47;;;0.90;85.40;;;;;;10348415;28;20074;-65
2022/03/01 08:31:12;;;;;;;12.27;4.53;;;0.90;83.40;;;;;;10351670;28;20045;-65
2022/03/01 08:36:14;;;;;;;14.45;5.00;;;1.10;83.30;;;;;;10350139;28;20416;-65
2022/03/01 08:41:16;;;;;;;9.57;3.78;;;1.20;82.80;;;;;;10344927;28;20565;-65
2022/03/01 08:46:18;;;;;;;11.90;4.47;;;1.30;82.90;;;;;;10333518;28;20111;-65
2022/03/01 08:51:21;;;;;;;11.18;4.00;;;1.50;83.60;;;;;;10353603;28;20065;-65
2022/03/01 08:56:23;;;;;;;17.08;4.78;;;1.60;80.50;;;;;;10343561;28;20045;-65
2022/03/01 09:01:25;;;;;;;11.05;4.03;;;1.80;77.60;;;;;;10348871;28;20050;-66
2022/03/01 09:06:27;;;;;;;9.95;4.50;;;2.00;75.40;;;;;;10351425;28;20049;-66
2022/03/01 09:11:28;;;;;;;14.45;4.20;;;2.10;75.30;;;;;;10342590;28;20077;-64
2022/03/01 09:16:30;;;;;;;10.93;3.45;;;2.20;75.10;;;;;;10349876;28;20107;-65
2022/03/01 09:21:32;;;;;;;9.48;3.28;;;2.40;74.20;;;;;;10343010;28;20085;-65
2022/03/01 09:26:33;;;;;;;12.07;4.05;;;2.70;72.80;;;;;;10345015;28;20049;-66
2022/03/01 09:31:35;;;;;;;9.90;3.50;;;3.00;72.30;;;;;;10342830;28;20050;-65
2022/03/01 09:36:37;;;;;;;11.00;4.13;;;3.10;70.50;;;;;;10335709;28;20493;-66
2022/03/01 09:41:39;;;;;;;10.68;3.85;;;3.30;71.60;;;;;;10337454;28;20118;-66
2022/03/01 09:46:40;;;;;;;11.38;3.30;;;3.40;68.50;;;;;;10349970;28;20113;-66
2022/03/01 09:51:43;;;;;;;15.02;4.05;;;3.60;68.80;;;;;;10344200;28;20046;-66
2022/03/01 09:56:45;;;;;;;10.63;4.25;;;3.90;65.50;;;;;;10341542;28;20073;-65
2022/03/01 10:01:51;;;;;;;8.38;2.92;;;4.20;64.80;;;;;;10346643;28;20511;-66
2022/03/01 10:06:54;;;;;;;8.27;3.30;;;4.40;63.40;;;;;;10340843;28;20409;-66
2022/03/01 10:12:04;;;;;;;9.85;2.80;;;4.60;59.60;;;;;;10341279;28;20042;-66
2022/03/01 10:17:14;;;;;;;8.10;3.60;;;4.70;59.20;;;;;;10337030;28;20042;-66
2022/03/01 10:22:20;;;;;;;8.80;3.25;;;4.80;58.60;;;;;;10345612;28;20039;-65
2022/03/01 10:27:28;;;;;;;8.18;2.97;;;5.00;58.40;;;;;;10339141;28;20103;-64
2022/03/01 10:32:32;;;;;;;8.45;2.85;;;5.10;57.90;;;;;;10339167;28;20094;-65
2022/03/01 10:37:39;;;;;;;8.43;2.85;;;5.40;57.80;;;;;;10350914;28;20064;-65
2022/03/01 10:42:42;;;;;;;7.97;2.37;;;5.30;57.60;;;;;;10344488;28;20046;-64
2022/03/01 10:47:52;;;;;;;14.10;3.33;;;5.30;56.70;;;;;;10305974;28;20053;-65
2022/03/01 10:52:54;;;;;;;5.63;2.30;;;5.40;55.60;;;;;;10345894;28;20127;-65
2022/03/01 10:57:57;;;;;;;7.30;2.58;;;5.60;55.90;;;;;;10344502;28;20070;-65
2022/03/01 11:02:59;;;;;;;8.05;2.67;;;5.90;55.00;;;;;;10341867;28;20073;-65
2022/03/01 11:08:08;;;;;;;8.93;2.58;;;6.20;55.00;;;;;;10343852;28;20392;-65
2022/03/01 11:13:12;;;;;;;9.13;3.10;;;6.40;52.80;;;;;;10338067;28;20041;-65
2022/03/01 11:18:49;;;;;;;8.40;3.47;;;6.60;53.70;;;;;;10347452;28;20461;-65
2022/03/01 11:23:53;;;;;;;8.13;3.07;;;6.90;52.80;;;;;;10335919;28;20101;-65
2022/03/01 11:28:57;;;;;;;6.47;2.65;;;7.10;51.10;;;;;;10342190;28;20041;-65
2022/03/01 11:34:01;;;;;;;8.23;3.10;;;7.10;51.10;;;;;;10336093;28;20572;-65
2022/03/01 11:39:14;;;;;;;6.45;2.60;;;7.30;51.50;;;;;;10343025;28;20044;-65
2022/03/01 11:44:21;;;;;;;8.32;3.05;;;7.60;49.20;;;;;;10347055;28;20500;-65
2022/03/01 11:49:23;;;;;;;11.20;3.00;;;7.80;49.20;;;;;;10351656;28;20060;-65
2022/03/01 11:54:33;;;;;;;7.28;3.03;;;8.20;48.40;;;;;;10349662;28;20062;-65
2022/03/01 11:59:39;;;;;;;6.03;3.05;;;8.50;46.60;;;;;;10348339;28;20046;-65
2022/03/01 12:04:52;;;;;;;8.52;3.55;;;8.80;47.50;;;;;;10356060;28;20103;-67
2022/03/01 12:09:57;;;;;;;10.95;3.08;;;8.80;47.90;;;;;;10347863;28;20061;-67
2022/03/01 12:14:58;;;;;;;8.82;3.10;;;9.30;46.00;;;;;;10341694;28;20481;-67
2022/03/01 12:20:01;;;;;;;5.85;2.67;;;10.20;45.10;;;;;;10351744;28;20050;-67
2022/03/01 12:25:03;;;;;;;7.82;3.13;;;10.30;42.50;;;;;;10341858;28;20050;-67
2022/03/01 12:30:06;;;;;;;10.15;3.30;;;10.70;41.90;;;;;;10351557;28;20057;-65
2022/03/01 12:35:07;;;;;;;6.55;2.67;;;10.90;41.20;;;;;;10356338;28;20058;-67
2022/03/01 12:40:10;;;;;;;8.50;3.35;;;10.80;42.10;;;;;;10352199;28;20046;-66
2022/03/01 12:45:11;;;;;;;7.00;2.75;;;10.60;42.00;;;;;;10346292;28;20050;-65
2022/03/01 12:50:17;;;;;;;6.15;2.30;;;10.30;43.20;;;;;;10349829;28;20069;-66
2022/03/01 12:55:19;;;;;;;5.72;2.40;;;10.10;40.70;;;;;;10346458;28;20069;-66
2022/03/01 13:00:23;;;;;;;8.73;3.45;;;10.50;42.20;;;;;;10347588;28;20129;-67
2022/03/01 13:05:27;;;;;;;6.53;2.55;;;11.30;39.80;;;;;;10351461;28;20510;-67
2022/03/01 13:10:35;;;;;;;5.18;2.65;;;12.10;38.40;;;;;;10342304;28;20045;-67
2022/03/01 13:15:37;;;;;;;7.22;3.38;;;12.90;36.60;;;;;;10345585;28;20568;-68
2022/03/01 13:20:39;;;;;;;8.57;2.50;;;14.00;36.30;;;;;;10344728;28;20055;-65
2022/03/01 13:25:44;;;;;;;6.25;3.00;;;15.20;34.60;;;;;;10346425;28;20069;-66
2022/03/01 13:30:46;;;;;;;3.42;1.98;;;16.00;34.30;;;;;;10352335;28;20081;-66
2022/03/01 13:35:47;;;;;;;5.70;3.20;;;16.70;32.40;;;;;;10343140;28;20555;-66
2022/03/01 13:40:49;;;;;;;5.50;3.03;;;17.80;31.90;;;;;;10342878;28;20070;-66
2022/03/01 13:46:14;;;;;;;4.55;2.83;;;;;;;;;;10345659;28;20120;-66
2022/03/01 13:51:17;;;;;;;5.20;2.67;;;16.70;29.90;;;;;;10345516;28;20049;-66
2022/03/01 13:56:21;;;;;;;8.90;2.97;;;17.80;30.50;;;;;;10346456;28;20627;-66
2022/03/01 14:01:23;;;;;;;4.10;2.72;;;17.90;30.50;;;;;;10346741;28;20103;-66
2022/03/01 14:06:25;;;;;;;7.38;3.00;;;17.60;29.00;;;;;;10342952;28;20057;-65
2022/03/01 14:11:27;;;;;;;6.03;2.83;;;17.40;29.70;;;;;;10339542;28;20108;-65
2022/03/01 14:16:30;;;;;;;5.93;2.85;;;17.20;31.40;;;;;;10343780;28;20037;-65
2022/03/01 14:21:32;;;;;;;7.43;2.40;;;17.10;30.50;;;;;;10346659;28;20045;-65
2022/03/01 14:26:34;;;;;;;6.05;2.92;;;16.50;32.10;;;;;;10339399;28;20057;-65
2022/03/01 14:31:38;;;;;;;4.10;2.60;;;16.60;30.70;;;;;;10343875;28;20478;-65
2022/03/01 14:36:44;;;;;;;7.90;3.35;;;16.50;32.30;;;;;;10342747;28;20180;-65
2022/03/01 14:41:46;;;;;;;6.13;2.70;;;16.10;32.90;;;;;;10328747;28;20388;-67
2022/03/01 14:46:48;;;;;;;4.75;2.08;;;14.90;33.60;;;;;;10348062;28;20080;-66
2022/03/01 14:51:50;;;;;;;9.02;2.88;;;14.00;34.80;;;;;;10341648;28;20492;-65
2022/03/01 14:56:52;;;;;;;6.60;3.13;;;13.40;35.10;;;;;;10338524;28;20680;-66
2022/03/01 15:01:54;;;;;;;6.63;2.90;;;12.60;37.00;;;;;;10338399;28;21025;-66
2022/03/01 15:06:56;;;;;;;6.05;2.75;;;12.10;37.70;;;;;;10340766;28;20052;-66
2022/03/01 15:11:58;;;;;;;10.27;2.90;;;11.60;38.40;;;;;;10331196;28;20057;-65
2022/03/01 15:17:00;;;;;;;5.22;2.67;;;11.10;38.80;;;;;;10339467;28;20112;-65
2022/03/01 15:22:02;;;;;;;7.93;3.25;;;10.80;40.40;;;;;;10339231;28;20038;-66
2022/03/01 15:27:06;;;;;;;7.13;2.58;;;10.50;40.30;;;;;;10332736;28;20054;-66
2022/03/01 15:32:08;;;;;;;6.80;2.88;;;10.30;40.60;;;;;;10337051;28;20100;-66
2022/03/01 15:37:11;;;;;;;7.15;2.42;;;10.00;40.20;;;;;;10336014;28;20548;-66
2022/03/01 15:42:14;;;;;;;9.82;3.10;;;9.90;41.60;;;;;;10344573;28;20069;-66
2022/03/01 15:47:17;;;;;;;6.43;2.90;;;9.60;41.90;;;;;;10342979;28;20068;-66
2022/03/01 15:52:18;;;;;;;9.38;3.30;;;9.40;43.90;;;;;;10339399;28;20050;-66
2022/03/01 15:57:20;;;;;;;10.55;3.05;;;9.30;45.20;;;;;;10342294;28;20147;-66
2022/03/01 16:02:23;;;;;;;5.88;2.83;;;9.20;45.80;;;;;;10337619;28;20039;-66
2022/03/01 16:07:25;;;;;;;5.43;2.60;;;9.00;44.10;;;;;;10336110;28;20046;-66
2022/03/01 16:12:27;;;;;;;6.68;3.20;;;8.90;44.60;;;;;;10341088;28;20046;-66
2022/03/01 16:17:29;;;;;;;6.40;2.60;;;8.70;46.20;;;;;;10339076;28;20093;-66
2022/03/01 16:22:31;;;;;;;6.97;3.78;;;8.60;46.50;;;;;;10339976;28;20053;-66
2022/03/01 16:27:32;;;;;;;7.63;2.58;;;8.30;47.00;;;;;;10345566;28;20077;-66
2022/03/01 16:32:34;;;;;;;5.68;3.10;;;8.20;48.50;;;;;;10347016;28;20143;-66
2022/03/01 16:37:37;;;;;;;10.57;3.65;;;8.00;48.10;;;;;;10337345;28;20160;-67
2022/03/01 16:42:39;;;;;;;6.68;2.50;;;7.90;48.70;;;;;;10340416;28;20061;-67
2022/03/01 16:47:40;;;;;;;7.22;3.22;;;7.70;49.20;;;;;;10342607;28;20117;-67
2022/03/01 16:52:42;;;;;;;7.07;2.35;;;7.60;49.00;;;;;;10351886;28;20127;-66
2022/03/01 16:57:44;;;;;;;9.93;4.70;;;7.40;50.70;;;;;;10345294;28;20082;-67
2022/03/01 17:02:46;;;;;;;10.65;3.83;;;7.20;50.10;;;;;;10345636;28;20157;-66
2022/03/01 17:07:48;;;;;;;7.75;4.10;;;7.10;51.90;;;;;;10351280;28;20129;-62
2022/03/01 17:12:50;;;;;;;7.07;3.10;;;6.90;53.00;;;;;;10341976;28;20057;-61
2022/03/01 17:17:53;;;;;;;11.73;3.55;;;6.80;52.40;;;;;;10341519;28;20136;-62
2022/03/01 17:22:55;;;;;;;11.05;3.72;;;6.70;53.20;;;;;;10342930;28;21191;-61
2022/03/01 17:27:57;;;;;;;12.85;5.28;;;6.60;55.90;;;;;;10346484;28;20049;-62
2022/03/01 17:32:59;;;;;;;9.20;4.82;;;6.50;58.90;;;;;;10344920;28;20046;-62
2022/03/01 17:38:02;;;;;;;15.63;5.57;;;6.40;59.90;;;;;;10348459;28;20057;-61
2022/03/01 17:43:03;;;;;;;11.20;5.72;;;6.30;62.10;;;;;;10343224;28;21018;-61
2022/03/01 17:48:05;;;;;;;8.43;4.57;;;6.10;61.20;;;;;;10350621;28;20108;-61
2022/03/01 17:53:09;;;;;;;10.10;3.92;;;6.00;61.90;;;;;;10343402;28;20104;-61
2022/03/01 17:58:11;;;;;;;13.02;3.90;;;5.90;63.70;;;;;;10344919;28;20122;-61
2022/03/01 18:03:12;;;;;;;10.70;4.20;;;5.70;64.20;;;;;;10345219;28;20038;-61
2022/03/01 18:08:17;;;;;;;9.00;3.67;;;5.60;65.00;;;;;;10339933;28;20093;-61
2022/03/01 18:13:19;;;;;;;14.98;5.32;;;5.50;65.60;;;;;;10339516;28;20618;-62
2022/03/01 18:18:23;;;;;;;12.18;5.05;;;5.40;69.10;;;;;;10337724;28;20042;-61
2022/03/01 18:23:24;;;;;;;12.55;5.55;;;5.20;70.70;;;;;;10337596;28;20038;-60
2022/03/01 18:28:26;;;;;;;13.38;4.43;;;5.10;71.90;;;;;;10351694;28;20049;-61
2022/03/01 18:33:28;;;;;;;13.27;5.22;;;5.00;72.10;;;;;;10349316;28;20154;-61
2022/03/01 18:38:30;;;;;;;10.70;4.88;;;4.80;70.20;;;;;;10340646;28;20053;-61
2022/03/01 18:43:33;;;;;;;15.07;5.78;;;4.70;70.40;;;;;;10347233;28;20440;-61
2022/03/01 18:48:35;;;;;;;12.25;5.22;;;4.60;71.70;;;;;;10342655;28;20054;-61
2022/03/01 18:53:38;;;;;;;10.20;4.63;;;4.40;75.40;;;;;;10339726;28;20056;-61
2022/03/01 18:58:41;;;;;;;16.70;7.40;;;4.30;75.90;;;;;;10344230;28;20056;-61
2022/03/01 19:03:43;;;;;;;18.95;12.05;;;4.10;74.70;;;;;;9785574;28;20885;-62
2022/03/01 19:08:48;;;;;;;15.32;11.57;;;4.00;76.10;;;;;;9588950;28;20200;-62
2022/03/01 19:13:51;;;;;;;15.60;11.27;;;3.90;76.80;;;;;;9632982;28;20072;-61
2022/03/01 19:18:53;;;;;;;16.98;12.35;;;3.80;76.00;;;;;;9599997;28;20049;-62
2022/03/01 19:23:55;;;;;;;18.15;12.18;;;3.70;77.50;;;;;;9516326;28;20398;-62
2022/03/01 19:28:57;;;;;;;13.63;4.95;;;3.70;78.10;;;;;;9895042;28;20050;-61
2022/03/01 19:33:59;;;;;;;12.00;5.40;;;3.60;78.30;;;;;;10333986;28;20069;-60
2022/03/01 19:39:03;;;;;;;15.95;5.47;;;3.50;79.60;;;;;;10337416;28;20054;-62
2022/03/01 19:44:05;;;;;;;11.00;5.82;;;3.50;80.10;;;;;;10337531;28;20121;-62
2022/03/01 19:49:11;;;;;;;15.15;6.30;;;3.40;84.30;;;;;;10338332;28;20112;-60
2022/03/01 19:54:13;;;;;;;18.00;6.35;;;3.30;84.50;;;;;;10335562;28;20076;-61
2022/03/01 19:59:15;;;;;;;12.85;5.63;;;3.20;85.50;;;;;;10345850;28;20045;-61
2022/03/01 20:04:16;;;;;;;11.25;5.13;;;3.10;85.30;;;;;;10344154;28;20555;-61
2022/03/01 20:09:18;;;;;;;9.80;5.18;;;2.90;86.20;;;;;;10348251;28;20053;-61
2022/03/01 20:14:21;;;;;;;16.92;5.20;;;2.80;84.40;;;;;;10355137;28;20672;-62
2022/03/01 20:19:25;;;;;;;11.10;5.10;;;2.60;87.20;;;;;;10345075;28;20045;-61
2022/03/01 20:24:28;;;;;;;12.95;4.72;;;2.50;85.80;;;;;;10350591;28;20046;-61
2022/03/01 20:29:30;;;;;;;15.27;4.85;;;2.40;85.20;;;;;;10345802;28;20070;-62
2022/03/01 20:34:34;;;;;;;16.67;5.47;;;2.30;84.80;;;;;;10345176;28;20084;-63
2022/03/01 20:39:36;;;;;;;15.00;5.30;;;2.20;84.90;;;;;;10345424;28;20517;-61
2022/03/01 20:44:38;;;;;;;15.07;6.40;;;2.10;85.90;;;;;;10345958;28;20074;-62
2022/03/01 20:49:40;;;;;;;20.70;6.95;;;2.00;85.50;;;;;;10347449;28;20493;-61
2022/03/01 20:54:41;;;;;;;24.58;9.32;;;1.90;89.70;;;;;;10344588;28;20073;-61
2022/03/01 20:59:43;;;;;;;17.77;6.30;;;1.80;92.50;;;;;;10350734;28;20498;-61
2022/03/01 21:04:45;;;;;;;13.70;5.10;;;1.70;91.90;;;;;;10348284;28;20057;-62
2022/03/01 21:09:47;;;;;;;18.67;6.68;;;1.70;91.30;;;;;;10343169;28;20112;-62
2022/03/01 21:14:49;;;;;;;21.60;5.15;;;1.60;92.10;;;;;;10345417;28;20058;-61
2022/03/01 21:19:50;;;;;;;11.43;4.15;;;1.50;92.30;;;;;;10345114;28;20128;-63
2022/03/01 21:24:52;;;;;;;15.07;5.38;;;1.50;92.10;;;;;;10348956;28;20529;-60
2022/03/01 21:29:54;;;;;;;18.40;6.95;;;1.40;91.80;;;;;;10345386;28;20187;-62
2022/03/01 21:34:56;;;;;;;17.45;6.47;;;1.40;91.10;;;;;;10337395;28;20103;-62
2022/03/01 21:39:58;;;;;;;12.48;5.07;;;1.40;91.60;;;;;;10343646;28;20050;-62
2022/03/01 21:45:00;;;;;;;9.38;3.95;;;1.40;88.80;;;;;;10349234;28;20116;-62
2022/03/01 21:50:02;;;;;;;11.13;4.32;;;1.40;87.00;;;;;;10341671;28;20058;-61
2022/03/01 21:55:06;;;;;;;15.13;5.28;;;1.50;86.20;;;;;;10342736;28;20053;-61
2022/03/01 22:00:12;;;;;;;8.75;4.72;;;1.60;87.40;;;;;;10343651;28;20073;-61
2022/03/01 22:05:16;;;;;;;8.23;4.05;;;1.70;87.80;;;;;;10344151;28;20111;-62
2022/03/01 22:10:19;;;;;;;11.05;4.55;;;1.60;86.80;;;;;;10352083;28;20057;-62
2022/03/01 22:15:21;;;;;;;12.27;5.20;;;1.70;86.70;;;;;;10339600;28;20100;-62
2022/03/01 22:20:22;;;;;;;12.98;5.18;;;1.70;86.60;;;;;;10346509;28;20072;-62
2022/03/01 22:25:24;;;;;;;11.45;4.82;;;1.80;86.70;;;;;;10340037;28;20050;-62
2022/03/01 22:30:26;;;;;;;11.50;5.30;;;1.80;87.10;;;;;;10334527;28;20058;-61
2022/03/01 22:35:28;;;;;;;12.52;5.32;;;1.80;86.60;;;;;;10346172;28;20046;-62
2022/03/01 22:51:04;;;;;;;9.77;5.00;;;1.90;87.60;;;;;;10246121;28;20131;-61
2022/03/01 22:56:05;;;;;;;12.38;4.68;;;1.90;87.00;;;;;;10247463;28;20417;-60
2022/03/01 23:01:25;;;;;;;11.85;4.05;;;1.90;86.80;;;;;;10246592;28;20133;-59
2022/03/01 23:06:28;;;;;;;11.27;4.50;;;1.80;86.30;;;;;;10243705;28;20055;-59
2022/03/01 23:11:30;;;;;;;10.60;4.55;;;1.80;87.00;;;;;;10247149;28;20129;-61
2022/03/01 23:16:32;;;;;;;10.85;4.85;;;1.80;87.30;;;;;;10242937;28;20131;-60
2022/03/01 23:21:33;;;;;;;13.02;5.70;;;1.70;87.90;;;;;;10244518;28;20047;-60
2022/03/01 23:26:35;;;;;;;13.82;6.07;;;1.70;90.40;;;;;;10242210;28;20071;-59
2022/03/01 23:31:37;;;;;;;11.68;5.82;;;1.70;93.00;;;;;;10249071;28;20129;-59
2022/03/01 23:36:38;;;;;;;11.70;5.60;;;1.60;94.10;;;;;;10245447;28;20071;-60
2022/03/01 23:41:40;;;;;;;12.60;5.65;;;1.50;93.60;;;;;;10232879;28;20051;-60
2022/03/01 23:46:42;;;;;;;14.38;5.10;;;1.40;93.10;;;;;;10253790;28;20073;-60
2022/03/01 23:51:43;;;;;;;21.52;6.22;;;1.30;92.20;;;;;;10330682;28;20061;-61
2022/03/01 23:56:46;;;;;;;13.23;4.70;;;1.20;92.80;;;;;;10340506;28;20467;-60
